Time;durP1;ratioP1;P1;durP2;ratioP2;P2;SDS_P1;SDS_P2;PMS_P1;PMS_P2;Temp;Humidity;BMP_temperature;BMP_pressure;BME280_temperature;BME280_humidity;BME280_pressure;Samples;Min_cycle;Max_cycle;Signal;HPM_P1;HPM_P2
2021/05/14 00:00:09;;;;;;;2.28;1.70;;;;;;;;;;5064341;28;20056;-85
2021/05/14 00:02:35;;;;;;;1.60;1.20;;;;;;;;;;5058011;28;20037;-85
2021/05/14 00:05:01;;;;;;;1.73;1.20;;;;;;;;;;5053234;28;20052;-85
2021/05/14 00:07:27;;;;;;;1.90;1.33;;;;;;;;;;5068035;28;20455;-85
2021/05/14 00:09:54;;;;;;;2.60;1.42;;;;;;;;;;5062044;28;20025;-85
2021/05/14 00:12:20;;;;;;;1.10;1.00;;;;;;;;;;5059464;28;20028;-85
2021/05/14 00:14:46;;;;;;;3.00;1.40;;;;;;;;;;5066615;28;20051;-85
2021/05/14 00:17:12;;;;;;;3.20;1.42;;;;;;;;;;5065184;28;20047;-85
2021/05/14 00:19:38;;;;;;;1.83;1.45;;;;;;;;;;5053608;28;20024;-85
2021/05/14 00:22:04;;;;;;;1.65;1.27;;;;;;;;;;5055454;28;20071;-85
2021/05/14 00:24:30;;;;;;;1.88;1.60;;;;;;;;;;5066101;28;20044;-85
2021/05/14 00:26:56;;;;;;;1.85;1.23;;;;;;;;;;5071139;28;20047;-85
2021/05/14 00:29:22;;;;;;;1.83;1.40;;;;;;;;;;5072368;28;20479;-85
2021/05/14 00:31:48;;;;;;;1.67;1.17;;;;;;;;;;5068249;28;20070;-85
2021/05/14 00:34:14;;;;;;;1.73;1.40;;;;;;;;;;5070842;28;20047;-85
2021/05/14 00:36:40;;;;;;;1.65;1.20;;;;;;;;;;5055762;28;20028;-85
2021/05/14 00:39:06;;;;;;;1.48;1.20;;;;;;;;;;5069581;28;20031;-85
2021/05/14 00:41:32;;;;;;;1.83;1.05;;;;;;;;;;5063586;28;20135;-85
2021/05/14 00:43:58;;;;;;;1.20;1.10;;;;;;;;;;5056047;28;20024;-86
2021/05/14 00:46:25;;;;;;;1.30;1.20;;;;;;;;;;5064463;28;20028;-85
2021/05/14 00:48:51;;;;;;;2.80;1.30;;;;;;;;;;5071089;28;20021;-85
2021/05/14 00:51:17;;;;;;;1.38;1.20;;;;;;;;;;5066133;28;20036;-85
2021/05/14 00:53:43;;;;;;;1.25;1.15;;;;;;;;;;5067775;28;20274;-85
2021/05/14 00:56:09;;;;;;;1.58;1.35;;;;;;;;;;5059506;28;20021;-85
2021/05/14 00:58:35;;;;;;;1.52;1.17;;;;;;;;;;5065410;28;20036;-85
2021/05/14 01:01:01;;;;;;;1.30;1.20;;;;;;;;;;5057654;28;20477;-85
2021/05/14 01:03:27;;;;;;;1.40;1.30;;;;;;;;;;5066081;28;20020;-85
2021/05/14 01:05:53;;;;;;;1.30;1.20;;;;;;;;;;5061446;28;20033;-85
2021/05/14 01:08:19;;;;;;;2.03;1.20;;;;;;;;;;5065842;28;20547;-85
2021/05/14 01:10:45;;;;;;;2.95;1.23;;;;;;;;;;5053022;28;20033;-85
2021/05/14 01:13:11;;;;;;;1.92;1.45;;;;;;;;;;5056944;28;20518;-85
2021/05/14 01:15:37;;;;;;;1.60;1.50;;;;;;;;;;5072403;28;20091;-85
2021/05/14 01:18:03;;;;;;;1.92;1.70;;;;;;;;;;5067861;28;20067;-85
2021/05/14 01:20:30;;;;;;;3.03;1.63;;;;;;;;;;5058261;28;20441;-85
2021/05/14 01:22:56;;;;;;;2.50;1.60;;;;;;;;;;5073198;28;20024;-85
2021/05/14 01:25:22;;;;;;;3.55;1.45;;;;;;;;;;5066203;28;20115;-85
2021/05/14 01:27:48;;;;;;;2.10;1.90;;;;;;;;;;5054039;28;20032;-85
2021/05/14 01:30:15;;;;;;;2.05;1.77;;;;;;;;;;5059039;28;20046;-85
2021/05/14 01:32:41;;;;;;;3.63;2.00;;;;;;;;;;5058666;28;20046;-85
2021/05/14 01:35:07;;;;;;;5.13;1.83;;;;;;;;;;5053063;28;20036;-85
2021/05/14 01:37:33;;;;;;;2.08;1.85;;;;;;;;;;5051639;28;20037;-85
2021/05/14 01:39:59;;;;;;;1.90;1.73;;;;;;;;;;5069190;28;20032;-85
2021/05/14 01:42:25;;;;;;;2.78;1.90;;;;;;;;;;5060440;28;20029;-85
2021/05/14 01:44:51;;;;;;;2.13;1.90;;;;;;;;;;5058197;28;20443;-85
2021/05/14 01:47:18;;;;;;;2.80;2.00;;;;;;;;;;5063267;28;20032;-85
2021/05/14 01:49:44;;;;;;;2.17;1.70;;;;;;;;;;5064389;28;20021;-85
2021/05/14 01:52:10;;;;;;;3.20;1.98;;;;;;;;;;5058056;28;20058;-85
2021/05/14 01:54:36;;;;;;;2.20;1.75;;;;;;;;;;5070855;28;20020;-85
2021/05/14 01:57:01;;;;;;;3.97;1.60;;;;;;;;;;5057116;28;20056;-85
2021/05/14 01:59:27;;;;;;;2.95;2.05;;;;;;;;;;5061914;28;20024;-85
2021/05/14 02:01:53;;;;;;;2.10;1.63;;;;;;;;;;5062824;28;20025;-85
2021/05/14 02:04:19;;;;;;;2.20;2.00;;;;;;;;;;5055594;28;20024;-85
2021/05/14 02:06:45;;;;;;;3.33;1.52;;;;;;;;;;5058584;28;20357;-85
2021/05/14 02:09:11;;;;;;;2.42;1.80;;;;;;;;;;5050533;28;20029;-85
2021/05/14 02:11:37;;;;;;;2.15;1.75;;;;;;;;;;5061845;28;20075;-85
2021/05/14 02:14:03;;;;;;;2.00;1.70;;;;;;;;;;5064696;28;20021;-85
2021/05/14 02:16:29;;;;;;;2.08;1.63;;;;;;;;;;5061638;28;20453;-85
2021/05/14 02:18:55;;;;;;;6.13;1.38;;;;;;;;;;5054541;28;20552;-85
2021/05/14 02:21:21;;;;;;;3.53;2.00;;;;;;;;;;5064605;28;20024;-85
2021/05/14 02:23:47;;;;;;;4.93;1.92;;;;;;;;;;5059193;28;20021;-85
2021/05/14 02:26:13;;;;;;;2.47;1.80;;;;;;;;;;5056142;28;20096;-85
2021/05/14 02:28:39;;;;;;;5.20;1.60;;;;;;;;;;5067600;28;20095;-85
2021/05/14 02:31:05;;;;;;;4.40;1.70;;;;;;;;;;5068073;28;20025;-85
2021/05/14 02:33:31;;;;;;;3.85;1.83;;;;;;;;;;5060638;28;20514;-85
2021/05/14 02:35:58;;;;;;;3.20;1.80;;;;;;;;;;5063106;28;20115;-85
2021/05/14 02:38:23;;;;;;;2.47;1.50;;;;;;;;;;5060839;28;20036;-85
2021/05/14 02:40:50;;;;;;;2.38;1.95;;;;;;;;;;5053985;28;20016;-85
2021/05/14 02:43:16;;;;;;;1.52;1.40;;;;;;;;;;5053633;28;20053;-85
2021/05/14 02:45:42;;;;;;;1.40;1.30;;;;;;;;;;5056711;28;20042;-85
2021/05/14 02:48:08;;;;;;;1.85;1.40;;;;;;;;;;5070300;28;20480;-85
2021/05/14 02:50:34;;;;;;;1.98;1.35;;;;;;;;;;5056189;28;20481;-85
2021/05/14 02:53:00;;;;;;;1.58;1.40;;;;;;;;;;5062558;28;20056;-85
2021/05/14 02:55:26;;;;;;;2.25;1.58;;;;;;;;;;5065059;28;20411;-85
2021/05/14 02:57:53;;;;;;;4.82;1.27;;;;;;;;;;5065730;28;20037;-85
2021/05/14 03:00:20;;;;;;;3.38;1.42;;;;;;;;;;5053827;28;20071;-85
2021/05/14 03:02:46;;;;;;;2.67;1.75;;;;;;;;;;5059811;28;20068;-85
2021/05/14 03:05:13;;;;;;;1.30;1.15;;;;;;;;;;5065237;28;20043;-85
2021/05/14 03:07:38;;;;;;;2.00;1.40;;;;;;;;;;5060563;28;20028;-85
2021/05/14 03:10:05;;;;;;;1.48;1.30;;;;;;;;;;5064205;28;20033;-85
2021/05/14 03:12:31;;;;;;;1.33;1.15;;;;;;;;;;5061738;28;20541;-85
2021/05/14 03:14:57;;;;;;;1.80;1.40;;;;;;;;;;5057901;28;20544;-85
2021/05/14 03:17:23;;;;;;;2.83;1.70;;;;;;;;;;5055562;28;20028;-85
2021/05/14 03:19:49;;;;;;;1.55;1.38;;;;;;;;;;5067534;28;20035;-85
2021/05/14 03:22:15;;;;;;;2.88;1.35;;;;;;;;;;5058124;28;20487;-85
2021/05/14 03:24:41;;;;;;;1.95;1.65;;;;;;;;;;5053091;28;20032;-85
2021/05/14 03:27:07;;;;;;;2.08;1.45;;;;;;;;;;5055086;28;20396;-85
2021/05/14 03:29:33;;;;;;;2.75;1.30;;;;;;;;;;5069507;28;20036;-85
2021/05/14 03:31:59;;;;;;;1.35;1.23;;;;;;;;;;5070672;28;20029;-85
2021/05/14 03:34:25;;;;;;;2.85;1.50;;;;;;;;;;5069293;28;20609;-85
2021/05/14 03:36:51;;;;;;;1.67;1.48;;;;;;;;;;5065097;28;20021;-85
2021/05/14 03:39:21;;;;;;;2.40;1.33;;;;;;;;;;5061119;28;20415;-85
2021/05/14 03:41:51;;;;;;;2.47;1.17;;;;;;;;;;5060617;28;20477;-85
2021/05/14 03:44:17;;;;;;;2.88;1.50;;;;;;;;;;5068333;28;20023;-85
2021/05/14 03:46:43;;;;;;;1.90;1.50;;;;;;;;;;5053586;28;20025;-85
2021/05/14 03:49:09;;;;;;;1.50;1.40;;;;;;;;;;5059141;28;20025;-85
2021/05/14 03:51:36;;;;;;;2.33;1.95;;;;;;;;;;5062033;28;20025;-85
2021/05/14 03:54:02;;;;;;;1.63;1.25;;;;;;;;;;5072602;28;20052;-85
2021/05/14 03:56:28;;;;;;;1.88;1.40;;;;;;;;;;5064767;28;20536;-85
2021/05/14 03:58:55;;;;;;;2.78;1.38;;;;;;;;;;5057639;28;20021;-85
2021/05/14 04:01:21;;;;;;;4.15;1.40;;;;;;;;;;5072488;28;20032;-85
2021/05/14 04:03:47;;;;;;;4.97;2.63;;;;;;;;;;5069032;28;20025;-85
2021/05/14 04:06:13;;;;;;;11.75;1.75;;;;;;;;;;5052973;28;20114;-85
2021/05/14 04:08:38;;;;;;;3.45;1.90;;;;;;;;;;5068799;28;20062;-85
2021/05/14 04:11:49;;;;;;;2.97;1.98;;;;;;;;;;5072540;28;20413;-85
2021/05/14 04:16:35;;;;;;;3.03;2.15;;;;;;;;;;5061383;28;20102;-85
2021/05/14 04:19:02;;;;;;;3.00;2.50;;;;;;;;;;5059894;28;20056;-85
2021/05/14 04:21:28;;;;;;;2.80;2.17;;;;;;;;;;5065220;28;20464;-85
2021/05/14 04:23:54;;;;;;;4.63;2.45;;;;;;;;;;5063720;28;20069;-85
2021/05/14 04:26:20;;;;;;;4.00;2.40;;;;;;;;;;5055771;28;20493;-85
2021/05/14 04:28:46;;;;;;;3.88;2.70;;;;;;;;;;5029451;28;20029;-85
2021/05/14 04:31:12;;;;;;;4.18;2.70;;;;;;;;;;5033723;28;20056;-85
2021/05/14 04:33:38;;;;;;;3.92;2.75;;;;;;;;;;5026709;28;20026;-85
2021/05/14 04:36:05;;;;;;;10.93;2.50;;;;;;;;;;5024204;28;20048;-85
2021/05/14 04:38:30;;;;;;;2.97;2.30;;;;;;;;;;5032341;28;20063;-85
2021/05/14 04:40:56;;;;;;;4.13;2.67;;;;;;;;;;5024403;28;20460;-85
2021/05/14 04:43:22;;;;;;;2.97;2.53;;;;;;;;;;5031404;28;20055;-85
2021/05/14 04:45:49;;;;;;;6.43;3.40;;;;;;;;;;5031713;28;20140;-85
2021/05/14 04:48:15;;;;;;;5.13;3.80;;;;;;;;;;5049905;28;20052;-85
2021/05/14 04:50:41;;;;;;;3.55;2.90;;;;;;;;;;5029248;28;20423;-85
2021/05/14 04:53:11;;;;;;;4.63;3.22;;;;;;;;;;5034917;28;20025;-85
2021/05/14 04:55:37;;;;;;;5.10;3.75;;;;;;;;;;5032709;28;20033;-85
2021/05/14 04:58:03;;;;;;;4.78;3.58;;;;;;;;;;5030234;28;20052;-85
2021/05/14 05:00:29;;;;;;;5.65;4.07;;;;;;;;;;5027901;28;20037;-85
2021/05/14 05:02:55;;;;;;;5.03;3.83;;;;;;;;;;5021126;28;20488;-85
2021/05/14 05:05:21;;;;;;;5.22;3.70;;;;;;;;;;5040523;28;20132;-85
2021/05/14 05:07:47;;;;;;;5.28;4.30;;;;;;;;;;5029372;28;20032;-85
2021/05/14 05:10:14;;;;;;;6.28;4.90;;;;;;;;;;5019618;28;20034;-85
2021/05/14 05:12:40;;;;;;;7.00;5.07;;;;;;;;;;5034875;28;20040;-85
2021/05/14 05:15:06;;;;;;;7.43;5.57;;;;;;;;;;5052028;28;20033;-85
2021/05/14 05:17:32;;;;;;;8.65;6.15;;;;;;;;;;5029280;28;20381;-85
2021/05/14 05:19:58;;;;;;;9.00;6.30;;;;;;;;;;5042604;28;20040;-85
2021/05/14 05:22:24;;;;;;;8.23;6.03;;;;;;;;;;5032477;28;20483;-85
2021/05/14 05:24:50;;;;;;;10.52;7.45;;;;;;;;;;5019974;28;20032;-85
2021/05/14 05:27:16;;;;;;;9.85;6.38;;;;;;;;;;5033495;28;20428;-85
2021/05/14 05:29:42;;;;;;;8.68;6.57;;;;;;;;;;5024536;28;20396;-85
2021/05/14 05:32:08;;;;;;;11.95;7.30;;;;;;;;;;5028330;28;20028;-85
2021/05/14 05:34:35;;;;;;;8.52;6.55;;;;;;;;;;5049185;28;20036;-85
2021/05/14 05:37:01;;;;;;;13.30;7.07;;;;;;;;;;5037245;28;20048;-85
2021/05/14 05:39:27;;;;;;;10.40;7.18;;;;;;;;;;5027848;28;20032;-85
2021/05/14 05:41:53;;;;;;;9.85;7.22;;;;;;;;;;5031998;28;20051;-83
2021/05/14 05:44:19;;;;;;;11.80;6.72;;;;;;;;;;5037663;28;20033;-83
2021/05/14 05:46:45;;;;;;;10.90;6.95;;;;;;;;;;5040566;28;20472;-83
2021/05/14 05:49:11;;;;;;;10.85;6.85;;;;;;;;;;5029028;28;20055;-83
2021/05/14 05:51:37;;;;;;;9.27;6.45;;;;;;;;;;5022673;28;20104;-83
2021/05/14 05:54:05;;;;;;;9.63;6.35;;;;;;;;;;5022053;28;20144;-83
2021/05/14 05:56:31;;;;;;;12.60;6.60;;;;;;;;;;5023538;28;20025;-83
2021/05/14 05:58:57;;;;;;;8.65;6.82;;;;;;;;;;5017999;28;20461;-82
2021/05/14 06:01:23;;;;;;;8.38;6.22;;;;;;;;;;5024314;28;20036;-82
2021/05/14 06:03:49;;;;;;;10.50;6.18;;;;;;;;;;5018217;28;20112;-83
2021/05/14 06:06:15;;;;;;;8.60;6.03;;;;;;;;;;5042293;28;20034;-83
2021/05/14 06:08:42;;;;;;;8.13;5.65;;;;;;;;;;5025789;28;20033;-83
2021/05/14 06:11:08;;;;;;;8.35;5.78;;;;;;;;;;5020170;28;20432;-83
2021/05/14 06:13:34;;;;;;;7.68;5.60;;;;;;;;;;5027329;28;20025;-83
2021/05/14 06:16:02;;;;;;;7.90;5.63;;;;;;;;;;5050375;28;20039;-84
2021/05/14 06:18:34;;;;;;;7.95;5.00;;;;;;;;;;5031530;28;20051;-85
2021/05/14 06:21:00;;;;;;;7.80;5.07;;;;;;;;;;5025644;28;20473;-84
2021/05/14 06:23:26;;;;;;;5.50;4.05;;;;;;;;;;5020499;28;20021;-85
2021/05/14 06:25:52;;;;;;;7.63;4.85;;;;;;;;;;5043844;28;20044;-85
2021/05/14 06:28:23;;;;;;;6.95;4.72;;;;;;;;;;5055580;28;20071;-85
2021/05/14 06:30:50;;;;;;;5.32;4.10;;;;;;;;;;5064751;28;20155;-86
2021/05/14 06:33:16;;;;;;;5.88;4.20;;;;;;;;;;5057697;28;20029;-87
2021/05/14 06:35:43;;;;;;;6.85;4.93;;;;;;;;;;5065119;28;20029;-85
2021/05/14 06:38:09;;;;;;;6.90;4.15;;;;;;;;;;5063658;28;20427;-84
2021/05/14 06:40:35;;;;;;;3.88;2.88;;;;;;;;;;5061242;28;20021;-83
2021/05/14 06:43:01;;;;;;;3.38;2.60;;;;;;;;;;5068343;28;20035;-83
2021/05/14 06:45:27;;;;;;;4.25;2.40;;;;;;;;;;5062932;28;20059;-83
2021/05/14 06:47:53;;;;;;;3.65;2.65;;;;;;;;;;5069734;28;20020;-83
2021/05/14 06:50:19;;;;;;;4.18;2.13;;;;;;;;;;5055389;28;20033;-83
2021/05/14 06:52:45;;;;;;;2.72;2.28;;;;;;;;;;5073011;28;20020;-83
2021/05/14 06:55:11;;;;;;;3.47;1.92;;;;;;;;;;5072184;28;20086;-85
2021/05/14 06:57:38;;;;;;;2.88;2.28;;;;;;;;;;5054073;28;20072;-86
2021/05/14 07:00:05;;;;;;;2.83;2.05;;;;;;;;;;5053782;28;20029;-85
2021/05/14 07:02:31;;;;;;;2.80;1.92;;;;;;;;;;5057157;28;20111;-82
2021/05/14 07:04:57;;;;;;;3.17;1.90;;;;;;;;;;5067137;28;20020;-83
2021/05/14 07:07:23;;;;;;;4.05;1.90;;;;;;;;;;5063291;28;20420;-83
2021/05/14 07:09:49;;;;;;;2.20;1.67;;;;;;;;;;5051920;28;20025;-82
2021/05/14 07:12:16;;;;;;;3.78;1.85;;;;;;;;;;5070248;28;20112;-86
2021/05/14 07:14:42;;;;;;;2.00;1.20;;;;;;;;;;5062621;28;20472;-86
2021/05/14 07:17:09;;;;;;;1.52;1.30;;;;;;;;;;5056695;28;20025;-86
2021/05/14 07:19:35;;;;;;;2.33;1.30;;;;;;;;;;5066082;28;20119;-86
2021/05/14 07:22:01;;;;;;;6.03;1.65;;;;;;;;;;5064376;28;20091;-86
2021/05/14 07:24:27;;;;;;;1.65;1.30;;;;;;;;;;5056007;28;20028;-86
2021/05/14 07:26:53;;;;;;;2.88;1.13;;;;;;;;;;5045307;28;20045;-85
2021/05/14 07:29:18;;;;;;;1.20;1.10;;;;;;;;;;5035842;28;20467;-85
2021/05/14 07:31:44;;;;;;;1.73;1.00;;;;;;;;;;5031986;28;20163;-85
2021/05/14 07:34:10;;;;;;;1.67;1.00;;;;;;;;;;5035752;28;20032;-85
2021/05/14 07:36:36;;;;;;;2.78;1.05;;;;;;;;;;5029159;28;20431;-85
2021/05/14 07:39:03;;;;;;;0.88;0.63;;;;;;;;;;5029549;28;20238;-84
2021/05/14 07:41:29;;;;;;;2.45;1.25;;;;;;;;;;5021634;28;20542;-83
2021/05/14 07:43:55;;;;;;;1.17;0.95;;;;;;;;;;5048703;28;20112;-82
2021/05/14 07:46:21;;;;;;;2.10;1.00;;;;;;;;;;5028212;28;20017;-83
2021/05/14 07:48:48;;;;;;;2.00;1.10;;;;;;;;;;5034220;28;20416;-83
2021/05/14 07:51:14;;;;;;;1.10;1.00;;;;;;;;;;5019036;28;20033;-84
2021/05/14 07:53:40;;;;;;;1.33;1.17;;;;;;;;;;5018955;28;20061;-84
2021/05/14 07:56:06;;;;;;;1.38;1.13;;;;;;;;;;5025227;28;20044;-84
2021/05/14 07:58:32;;;;;;;2.25;1.27;;;;;;;;;;5037412;28;20472;-84
2021/05/14 08:00:58;;;;;;;3.85;1.60;;;;;;;;;;5018690;28;20028;-85
2021/05/14 08:03:24;;;;;;;5.70;2.08;;;;;;;;;;5029177;28;20457;-85
2021/05/14 08:05:50;;;;;;;2.55;1.92;;;;;;;;;;5025189;28;20029;-85
2021/05/14 08:08:18;;;;;;;2.83;1.83;;;;;;;;;;5037796;28;20024;-86
2021/05/14 08:10:46;;;;;;;4.45;1.75;;;;;;;;;;5021526;28;20021;-88
2021/05/14 08:13:12;;;;;;;2.42;1.80;;;;;;;;;;5030390;28;20064;-86
2021/05/14 08:15:39;;;;;;;3.45;1.90;;;;;;;;;;5025977;28;20033;-86
2021/05/14 08:18:05;;;;;;;4.28;2.63;;;;;;;;;;5039759;28;20075;-86
2021/05/14 08:20:31;;;;;;;4.10;1.70;;;;;;;;;;5025702;28;20060;-85
2021/05/14 08:22:58;;;;;;;4.50;1.98;;;;;;;;;;5043524;28;20044;-84
2021/05/14 08:25:24;;;;;;;4.82;2.20;;;;;;;;;;5026747;28;20445;-86
2021/05/14 08:27:50;;;;;;;4.38;2.08;;;;;;;;;;5061175;28;20033;-86
2021/05/14 08:30:16;;;;;;;7.78;2.38;;;;;;;;;;5070125;28;20063;-85
2021/05/14 08:32:42;;;;;;;6.20;2.35;;;;;;;;;;5067813;28;20021;-85
2021/05/14 08:35:09;;;;;;;3.95;2.40;;;;;;;;;;5057883;28;20033;-86
2021/05/14 08:37:36;;;;;;;3.85;2.60;;;;;;;;;;5068095;28;20491;-85
2021/05/14 08:40:03;;;;;;;3.88;2.00;;;;;;;;;;5066394;28;20163;-86
2021/05/14 08:42:29;;;;;;;4.00;2.25;;;;;;;;;;5060456;28;20124;-86
2021/05/14 08:44:56;;;;;;;6.65;2.28;;;;;;;;;;5057842;28;20024;-86
2021/05/14 08:47:23;;;;;;;4.15;2.20;;;;;;;;;;5066244;28;20158;-86
2021/05/14 08:49:49;;;;;;;4.25;1.98;;;;;;;;;;5070430;28;20622;-86
2021/05/14 08:52:17;;;;;;;2.42;1.90;;;;;;;;;;5068843;28;20468;-86
2021/05/14 08:54:46;;;;;;;3.35;2.53;;;;;;;;;;5052741;28;20024;-86
2021/05/14 08:57:15;;;;;;;6.70;2.38;;;;;;;;;;5063650;28;20051;-86
2021/05/14 08:59:42;;;;;;;2.83;1.95;;;;;;;;;;5060200;28;20024;-86
2021/05/14 09:02:08;;;;;;;4.30;1.88;;;;;;;;;;5068872;28;20036;-86
2021/05/14 09:04:34;;;;;;;6.53;2.38;;;;;;;;;;5071206;28;20480;-86
2021/05/14 09:07:01;;;;;;;7.18;2.22;;;;;;;;;;5061764;28;20028;-85
2021/05/14 09:09:27;;;;;;;5.30;2.15;;;;;;;;;;5072021;28;20035;-85
2021/05/14 09:11:53;;;;;;;1.88;1.60;;;;;;;;;;5073411;28;20031;-85
2021/05/14 09:14:32;;;;;;;2.80;1.77;;;;;;;;;;5061868;28;20533;-85
2021/05/14 09:17:05;;;;;;;4.65;2.00;;;;;;;;;;5071522;28;20486;-85
2021/05/14 09:19:31;;;;;;;;;;;;;;;;;;5070908;28;20043;-85
2021/05/14 09:22:10;;;;;;;2.72;1.77;;;;;;;;;;5062216;28;19913;-84
2021/05/14 09:24:40;;;;;;;3.70;2.30;;;;;;;;;;5059476;28;20025;-87
2021/05/14 09:27:17;;;;;;;2.78;1.95;;;;;;;;;;5074136;28;20422;-86
2021/05/14 09:29:44;;;;;;;5.63;2.20;;;;;;;;;;5069822;28;20131;-87
2021/05/14 09:32:27;;;;;;;6.45;2.40;;;;;;;;;;5063417;28;20017;-85
2021/05/14 09:34:54;;;;;;;4.35;1.92;;;;;;;;;;5071670;28;20530;-83
2021/05/14 09:37:20;;;;;;;5.00;1.75;;;;;;;;;;5065688;28;20037;-85
2021/05/14 09:39:46;;;;;;;5.30;2.22;;;;;;;;;;5062844;28;20035;-85
2021/05/14 09:42:13;;;;;;;5.13;2.40;;;;;;;;;;5068091;28;20032;-84
2021/05/14 09:44:39;;;;;;;5.50;2.42;;;;;;;;;;5055434;28;20035;-85
2021/05/14 09:47:05;;;;;;;4.80;2.40;;;;;;;;;;5059792;28;20017;-84
2021/05/14 09:49:33;;;;;;;4.30;1.80;;;;;;;;;;5069811;28;20518;-84
2021/05/14 09:52:06;;;;;;;3.72;2.33;;;;;;;;;;5062337;28;20028;-84
2021/05/14 09:54:32;;;;;;;;;;;;;;;;;;5072712;28;20038;-85
2021/05/14 09:59:55;;;;;;;7.10;2.65;;;;;;;;;;5070618;28;20032;-86
2021/05/14 10:02:27;;;;;;;6.07;2.38;;;;;;;;;;5065362;28;20025;-84
2021/05/14 10:04:54;;;;;;;4.55;2.70;;;;;;;;;;5055213;28;20350;-84
2021/05/14 10:07:20;;;;;;;5.60;2.42;;;;;;;;;;5061825;28;20054;-84
2021/05/14 10:09:48;;;;;;;5.22;2.25;;;;;;;;;;5055883;28;20032;-84
2021/05/14 10:12:15;;;;;;;3.60;2.60;;;;;;;;;;5063347;28;20427;-84
2021/05/14 10:14:42;;;;;;;8.38;3.15;;;;;;;;;;5071785;28;20135;-84
2021/05/14 10:17:08;;;;;;;5.22;2.13;;;;;;;;;;5062384;28;20044;-84
2021/05/14 10:19:36;;;;;;;4.22;2.92;;;;;;;;;;5056812;28;20025;-84
2021/05/14 10:22:03;;;;;;;5.28;2.38;;;;;;;;;;5061584;28;20021;-84
2021/05/14 10:24:39;;;;;;;9.15;2.60;;;;;;;;;;5055227;28;20028;-84
2021/05/14 10:27:17;;;;;;;4.18;2.05;;;;;;;;;;5056293;28;20163;-84
2021/05/14 10:29:44;;;;;;;2.25;1.85;;;;;;;;;;5086140;28;20514;-84
2021/05/14 10:32:11;;;;;;;5.72;1.83;;;;;;;;;;5051696;28;20519;-84
2021/05/14 10:34:37;;;;;;;2.97;2.10;;;;;;;;;;5063529;28;20044;-84
2021/05/14 10:37:03;;;;;;;3.00;1.38;;;;;;;;;;5064018;28;20044;-84
2021/05/14 10:39:41;;;;;;;7.22;1.60;;;;;;;;;;5059664;28;20063;-84
2021/05/14 10:42:07;;;;;;;4.65;1.50;;;;;;;;;;5052434;28;20097;-84
2021/05/14 10:44:44;;;;;;;9.00;1.92;;;;;;;;;;5070570;28;20036;-84
2021/05/14 10:47:36;;;;;;;4.10;1.70;;;;;;;;;;5059031;28;20499;-84
2021/05/14 10:50:12;;;;;;;2.88;1.65;;;;;;;;;;5053347;28;20037;-84
2021/05/14 10:52:57;;;;;;;4.95;1.23;;;;;;;;;;5062990;28;20138;-84
2021/05/14 10:55:31;;;;;;;3.85;1.30;;;;;;;;;;5062892;28;20518;-85
2021/05/14 10:57:57;;;;;;;6.22;1.50;;;;;;;;;;5061884;28;20025;-85
2021/05/14 11:00:23;;;;;;;3.75;1.40;;;;;;;;;;5063511;28;20051;-85
2021/05/14 11:03:09;;;;;;;6.25;1.58;;;;;;;;;;5063941;28;20101;-83
2021/05/14 11:05:35;;;;;;;3.75;1.38;;;;;;;;;;5042599;28;20051;-84
2021/05/14 11:08:01;;;;;;;3.15;1.27;;;;;;;;;;5063248;28;20032;-84
2021/05/14 11:10:27;;;;;;;3.05;1.50;;;;;;;;;;5072471;28;20065;-84
2021/05/14 11:12:54;;;;;;;4.50;1.48;;;;;;;;;;5070149;28;20025;-84
2021/05/14 11:15:19;;;;;;;2.47;1.27;;;;;;;;;;5056521;28;20032;-84
2021/05/14 11:18:04;;;;;;;2.35;1.30;;;;;;;;;;5056204;28;20029;-84
2021/05/14 11:20:40;;;;;;;4.85;1.92;;;;;;;;;;5064062;28;20485;-84
2021/05/14 11:23:25;;;;;;;2.20;1.50;;;;;;;;;;5057239;28;20036;-84
2021/05/14 11:25:51;;;;;;;3.13;1.73;;;;;;;;;;5055353;28;20045;-84
2021/05/14 11:28:17;;;;;;;4.32;1.70;;;;;;;;;;5059055;28;20090;-84
2021/05/14 11:30:53;;;;;;;3.45;1.42;;;;;;;;;;5060446;28;20060;-84
2021/05/14 11:33:27;;;;;;;2.92;1.38;;;;;;;;;;5059971;28;20544;-84
2021/05/14 11:35:53;;;;;;;1.92;1.30;;;;;;;;;;5058047;28;20033;-84
2021/05/14 11:38:19;;;;;;;1.88;1.10;;;;;;;;;;5059004;28;20048;-84
2021/05/14 11:40:48;;;;;;;3.55;1.23;;;;;;;;;;5058100;28;20028;-84
2021/05/14 11:43:14;;;;;;;1.75;1.08;;;;;;;;;;5057235;28;20025;-84
2021/05/14 11:45:42;;;;;;;5.05;1.38;;;;;;;;;;5056369;28;20021;-84
2021/05/14 11:48:09;;;;;;;1.67;0.90;;;;;;;;;;5058237;28;20032;-84
2021/05/14 11:50:39;;;;;;;1.80;0.90;;;;;;;;;;5059395;28;20025;-84
2021/05/14 11:53:06;;;;;;;1.90;0.93;;;;;;;;;;5071203;28;20047;-84
2021/05/14 11:55:33;;;;;;;1.58;0.93;;;;;;;;;;5059853;28;20053;-84
2021/05/14 11:57:59;;;;;;;1.40;0.77;;;;;;;;;;5064675;28;20040;-83
2021/05/14 12:00:25;;;;;;;3.28;0.70;;;;;;;;;;5068533;28;20029;-83
2021/05/14 12:02:51;;;;;;;3.10;0.80;;;;;;;;;;5063712;28;20031;-84
2021/05/14 12:05:19;;;;;;;2.17;0.60;;;;;;;;;;5065391;28;20043;-84
2021/05/14 12:07:45;;;;;;;2.58;0.82;;;;;;;;;;5061475;28;20476;-84
2021/05/14 12:10:13;;;;;;;1.88;0.55;;;;;;;;;;5066712;28;20039;-83
2021/05/14 12:12:40;;;;;;;2.72;0.90;;;;;;;;;;5077147;28;20031;-84
2021/05/14 12:15:14;;;;;;;3.05;0.88;;;;;;;;;;5078603;28;20067;-84
2021/05/14 12:17:40;;;;;;;5.65;0.60;;;;;;;;;;5071584;28;20050;-84
2021/05/14 12:20:18;;;;;;;0.93;0.80;;;;;;;;;;5070847;28;20478;-84
2021/05/14 12:22:45;;;;;;;2.95;0.80;;;;;;;;;;5061580;28;20024;-84
2021/05/14 12:25:12;;;;;;;2.85;0.80;;;;;;;;;;5070655;28;20748;-84
2021/05/14 12:27:38;;;;;;;2.17;0.90;;;;;;;;;;5039706;28;20029;-83
2021/05/14 12:30:04;;;;;;;1.90;0.80;;;;;;;;;;5037344;28;20424;-84
2021/05/14 12:32:30;;;;;;;3.70;1.05;;;;;;;;;;5029038;28;20057;-84
2021/05/14 12:34:56;;;;;;;5.25;0.77;;;;;;;;;;5043520;28;20429;-84
2021/05/14 12:37:22;;;;;;;2.75;0.90;;;;;;;;;;5035322;28;20029;-84
2021/05/14 12:39:49;;;;;;;2.35;0.80;;;;;;;;;;5026416;28;20476;-84
2021/05/14 12:42:35;;;;;;;1.17;0.68;;;;;;;;;;5020149;28;20033;-84
2021/05/14 12:45:01;;;;;;;3.55;1.23;;;;;;;;;;5037812;28;20025;-84
2021/05/14 12:47:28;;;;;;;4.15;0.85;;;;;;;;;;5037727;28;20036;-84
2021/05/14 12:49:58;;;;;;;1.60;0.98;;;;;;;;;;5035172;28;20029;-84
2021/05/14 12:52:27;;;;;;;1.75;1.00;;;;;;;;;;5022781;28;20036;-84
2021/05/14 12:54:58;;;;;;;2.08;0.90;;;;;;;;;;5037312;28;20025;-85
2021/05/14 12:57:41;;;;;;;3.15;0.70;;;;;;;;;;5029600;28;20051;-84
2021/05/14 13:00:14;;;;;;;2.28;0.70;;;;;;;;;;5034833;28;20100;-85
2021/05/14 13:02:40;;;;;;;4.65;1.10;;;;;;;;;;5029629;28;20370;-84
2021/05/14 13:05:11;;;;;;;3.35;0.98;;;;;;;;;;5020668;28;20045;-85
2021/05/14 13:07:38;;;;;;;5.22;0.93;;;;;;;;;;5017781;28;20025;-82
2021/05/14 13:10:07;;;;;;;4.07;0.75;;;;;;;;;;5034126;28;20496;-83
2021/05/14 13:12:33;;;;;;;3.40;0.50;;;;;;;;;;5041748;28;20029;-84
2021/05/14 13:14:59;;;;;;;2.20;0.75;;;;;;;;;;5032816;28;20120;-86
2021/05/14 13:17:25;;;;;;;2.72;0.60;;;;;;;;;;5026110;28;20044;-85
2021/05/14 13:19:51;;;;;;;1.90;0.73;;;;;;;;;;5032559;28;20021;-87
2021/05/14 13:22:17;;;;;;;2.65;0.70;;;;;;;;;;5019975;28;20029;-89
2021/05/14 13:24:44;;;;;;;3.28;0.40;;;;;;;;;;5044453;28;20413;-87
2021/05/14 13:27:10;;;;;;;2.38;0.73;;;;;;;;;;5062034;28;20496;-86
2021/05/14 13:29:36;;;;;;;7.05;0.73;;;;;;;;;;5061987;28;20027;-86
2021/05/14 13:32:02;;;;;;;0.73;0.38;;;;;;;;;;5062946;28;20027;-86
2021/05/14 13:34:29;;;;;;;1.20;0.43;;;;;;;;;;5068283;28;20044;-86
2021/05/14 13:36:55;;;;;;;4.25;1.10;;;;;;;;;;5070684;28;20020;-86
2021/05/14 13:39:21;;;;;;;1.52;0.50;;;;;;;;;;5065804;28;20043;-87
2021/05/14 13:41:48;;;;;;;3.65;0.65;;;;;;;;;;5066436;28;20024;-87
2021/05/14 13:44:14;;;;;;;1.80;0.63;;;;;;;;;;5084746;28;20074;-86
2021/05/14 13:46:40;;;;;;;1.83;0.70;;;;;;;;;;5060382;28;20051;-88
2021/05/14 13:49:06;;;;;;;2.60;0.80;;;;;;;;;;5062818;28;20024;-87
2021/05/14 13:51:32;;;;;;;6.15;0.95;;;;;;;;;;5059449;28;20036;-87
2021/05/14 13:53:58;;;;;;;2.70;0.70;;;;;;;;;;5062090;28;20043;-87
2021/05/14 13:56:24;;;;;;;2.63;0.70;;;;;;;;;;5061705;28;20025;-88
2021/05/14 13:58:50;;;;;;;2.80;0.63;;;;;;;;;;5068403;28;20415;-88
2021/05/14 14:01:16;;;;;;;1.63;0.63;;;;;;;;;;5059755;28;20052;-86
2021/05/14 14:03:42;;;;;;;1.52;0.65;;;;;;;;;;5064236;28;20038;-87
2021/05/14 14:06:08;;;;;;;2.25;0.68;;;;;;;;;;5065542;28;20013;-87
2021/05/14 14:08:34;;;;;;;2.63;0.68;;;;;;;;;;5057252;28;20361;-86
2021/05/14 14:11:00;;;;;;;3.35;0.77;;;;;;;;;;5065328;28;20028;-87
2021/05/14 14:13:26;;;;;;;2.20;0.70;;;;;;;;;;5063275;28;20434;-86
2021/05/14 14:15:54;;;;;;;1.60;0.63;;;;;;;;;;5066301;28;20032;-86
2021/05/14 14:18:20;;;;;;;1.75;0.70;;;;;;;;;;5053288;28;20047;-85
2021/05/14 14:20:46;;;;;;;2.58;1.23;;;;;;;;;;5068276;28;20940;-86
2021/05/14 14:23:12;;;;;;;2.17;0.77;;;;;;;;;;5057460;28;20033;-86
2021/05/14 14:25:38;;;;;;;1.38;0.60;;;;;;;;;;5053732;28;20045;-85
2021/05/14 14:28:04;;;;;;;2.40;0.75;;;;;;;;;;5067633;28;20107;-86
2021/05/14 14:30:30;;;;;;;3.55;0.88;;;;;;;;;;5065284;28;20032;-86
2021/05/14 14:32:56;;;;;;;2.72;0.80;;;;;;;;;;5064909;28;20099;-86
2021/05/14 14:35:22;;;;;;;1.73;0.65;;;;;;;;;;5071123;28;20480;-86
2021/05/14 14:37:48;;;;;;;8.70;0.90;;;;;;;;;;5066847;28;20078;-86
2021/05/14 14:40:14;;;;;;;1.63;0.60;;;;;;;;;;5067711;28;20085;-86
2021/05/14 14:42:42;;;;;;;4.55;0.68;;;;;;;;;;5065374;28;20020;-86
2021/05/14 14:45:12;;;;;;;3.08;0.90;;;;;;;;;;5058517;28;20583;-86
2021/05/14 14:47:38;;;;;;;1.30;0.60;;;;;;;;;;5055047;28;20037;-85